Nearby METAR Reports

 

KMTN - Baltimore/Martin, Maryland, USA
Distance from station: SSE 8mi, 13km
Updated: Tue, 21-Oct-2014 7:45am EDT
Shallow fog, Few clouds
Shallow fog, Few clouds
 Wind from calm
Wind: Calm
Temperature: 48°F , 9°C
Dew Point: 48°F , 9°C
Humidity: 100%
Barometer: 29.88 inHg , 1011.9 hPa
Summary: Shallow Fog
Clouds: Few Clouds
Visibility: 10 miles , 16 km
Cloud details: Few Clouds 12000 ft
2014/10/21 11:45 KMTN 211145Z 00000KT 10SM MIFG FEW120 09/09 A2988
KDMH - Baltimore/Dwntwn, Maryland, USA
Distance from station: SW 12mi, 19km
Updated: Tue, 21-Oct-2014 6:54am EDT

 
Temperature: 54°F , 12°C
Dew Point: 48°F , 9°C
Humidity: 82%
Barometer: 29.86 inHg , 1011.2 hPa
2014/10/21 10:54 KDMH 211054Z AUTO 12/09 A2986 RMK AO1 SLP113 T01220089
 
KBWI - Balto/Wash Intl, Maryland, USA
Distance from station: SSW 20mi, 33km
Updated: Tue, 21-Oct-2014 6:54am EDT
Partly cloudy
Partly cloudy
 Wind from calm
Wind: Calm
Temperature: 46°F , 8°C
Dew Point: 46°F , 8°C
Humidity: 100%
Barometer: 29.86 inHg , 1011.2 hPa
Clouds: Partly cloudy
Visibility: 10 miles , 16 km
Cloud details: Few Clouds 6000 ft
Partly cloudy 11000 ft
Partly cloudy 25000 ft
2014/10/21 10:54 KBWI 211054Z 00000KT 10SM FEW060 SCT110 SCT250 08/08 A2986 RMK AO2 SLP110 T00830078
KDMW - Carroll Cnty, Maryland, USA
Distance from station: WNW 30mi, 48km
Updated: Tue, 21-Oct-2014 7:45am EDT
Clear
Clear
 Wind from calm
Wind: Calm
Temperature: 46°F , 8°C
Dew Point: 45°F , 7°C
Humidity: 93%
Barometer: 29.86 inHg , 1011.2 hPa
Clouds: Clear
Visibility: 7 miles , 11 km
2014/10/21 11:45 KDMW 211145Z AUTO 00000KT 7SM CLR 08/07 A2986 RMK AO2
 
KNAK - Annapolis/Naval, Maryland, USA
Distance from station: S 30mi, 48km
Updated: Tue, 21-Oct-2014 7:54am EDT
Few Clouds
Few Clouds
 Wind from calm
Wind: Calm
Temperature: 54°F , 12°C
Dew Point: 48°F , 9°C
Humidity: 82%
Barometer: 29.87 inHg , 1011.5 hPa
Clouds: Few Clouds
Visibility: 10 miles , 16 km
Cloud details: Few Clouds 12000 ft
2014/10/21 11:54 KNAK 211154Z AUTO 00000KT 10SM FEW120 12/09 A2987 RMK AO2 SLP117 60000 T01220089 10144 20117 53004
KW29 - Stevensville, Maryland, USA
Distance from station: SSE 31mi, 50km
Updated: Tue, 21-Oct-2014 7:48am EDT

 Wind from W
Wind: W 3 mph , 6 km/h
Temperature: 55°F , 13°C
Dew Point: 46°F , 8°C
Humidity: 72%
Barometer: 29.87 inHg , 1011.5 hPa
Visibility: 10 miles , 16 km
2014/10/21 11:48 KW29 211148Z AUTO 26003KT 10SM 13/08 A2987 RMK AO1
 
KCGS - College Park, Maryland, USA
Distance from station: SW 38mi, 61km
Updated: Tue, 21-Oct-2014 7:45am EDT
Clear
Clear
 Wind from calm
Wind: Calm
Temperature: 46°F , 8°C
Dew Point: 46°F , 8°C
Humidity: 100%
Barometer: 29.87 inHg , 1011.5 hPa
Clouds: Clear
Visibility: 4 miles , 6 km
2014/10/21 11:45 KCGS 211145Z AUTO 00000KT 4SM CLR 08/08 A2987 RMK AO1
KGAI - Gaithersburg, Maryland, USA
Distance from station: WSW 40mi, 65km
Updated: Tue, 21-Oct-2014 7:35am EDT
Clear
Clear
 Wind from calm
Wind: Calm
Temperature: 46°F , 8°C
Dew Point: 43°F , 6°C
Humidity: 87%
Barometer: 29.90 inHg , 1012.5 hPa
Clouds: Clear
Visibility: 1 3/4 miles , 5 km
2014/10/21 11:35 KGAI 211135Z 00000KT 1 3/4SM CLR 08/06 A2990 RMK AO1
 
KTHV - York, Pennsylvania, USA
Distance from station: NNW 40mi, 65km
Updated: Tue, 21-Oct-2014 6:53am EDT
Fog, Overcast
Fog, Overcast
 Wind from calm
Wind: Calm
Temperature: 45°F , 7°C
Dew Point: 43°F , 6°C
Humidity: 93%
Barometer: 29.86 inHg , 1011.2 hPa
Summary: Fog
Clouds: Overcast
Visibility: 1/2 mile , 2 km
Cloud details: Overcast 100 ft
2014/10/21 10:53 KTHV 211053Z AUTO 00000KT 1/2SM FG VV001 07/06 A2986 RMK AO2 SLP113 T00670061
KFDK - Frederick, Maryland, USA
Distance from station: W 47mi, 75km
Updated: Tue, 21-Oct-2014 7:50am EDT
Mostly cloudy
Mostly cloudy
 Wind from calm
Wind: Calm
Temperature: 50°F , 10°C
Dew Point: 46°F , 8°C
Humidity: 88%
Barometer: 29.89 inHg , 1012.2 hPa
Clouds: Mostly cloudy
Visibility: 10 miles , 16 km
Cloud details: Mostly cloudy 5000 ft
2014/10/21 11:50 KFDK 211150Z 00000KT 10SM BKN050 10/08 A2989
 
KESN - Easton/Newnam, Maryland, USA
Distance from station: SSE 48mi, 78km
Updated: Tue, 21-Oct-2014 6:50am EDT
Clear
Clear
 Wind from calm
Wind: Calm
Temperature: 54°F , 12°C
Dew Point: 54°F , 12°C
Humidity: 100%
Barometer: 29.90 inHg , 1012.5 hPa
Clouds: Clear
Visibility: 10 miles , 16 km
2014/10/21 10:50 KESN 211050Z 00000KT 10SM SKC 12/12 A2990
KDCA - Washington/Natl, Washington D.c., USA
Distance from station: SW 49mi, 79km
Updated: Tue, 21-Oct-2014 7:52am EDT
Partly cloudy
Partly cloudy
 Wind from calm
Wind: Calm
Temperature: 55°F , 13°C
Dew Point: 46°F , 8°C
Humidity: 72%
Barometer: 29.87 inHg , 1011.5 hPa
Clouds: Partly cloudy
Visibility: 10 miles , 16 km
Cloud details: Partly cloudy 11000 ft
Partly cloudy 25000 ft
2014/10/21 11:52 KDCA 211152Z 00000KT 10SM SCT110 SCT250 13/08 A2987 RMK AO2 SLP115 70001 T01330083 10150 20122 55001
 
KLNS - Lancaster, Pennsylvania, USA
Distance from station: N 49mi, 79km
Updated: Tue, 21-Oct-2014 7:53am EDT
Mist, Mostly cloudy
Mist, Mostly cloudy
 Wind from calm
Wind: Calm
Temperature: 48°F , 9°C
Dew Point: 46°F , 8°C
Humidity: 94%
Barometer: 29.87 inHg , 1011.5 hPa
Summary: Mist
Clouds: Mostly cloudy
Visibility: 3 miles , 5 km
Cloud details: Mostly cloudy 10000 ft
2014/10/21 11:53 KLNS 211153Z 00000KT 3SM BR BKN100 09/08 A2987 RMK AO2 SLP114 60003 70007 T00890083 10111 20089 53003
KILG - Wilmington, Delaware, USA
Distance from station: ENE 50mi, 81km
Updated: Tue, 21-Oct-2014 7:51am EDT
Clear
Clear
 Wind from NNW
Wind: NNW 5 mph , 7 km/h
Temperature: 48°F , 9°C
Wind Chill: 46°F , 8°C
Dew Point: 46°F , 8°C
Humidity: 94%
Barometer: 29.88 inHg , 1011.9 hPa
Clouds: Clear
Visibility: 10 miles , 16 km
2014/10/21 11:51 KILG 211151Z 33004KT 10SM CLR 09/08 A2988 RMK AO2 SLP117 60000 T00940083 10128 20089 53001